createdAt,value
2023-02-20T00:18:25.744Z,19.5
2023-02-20T00:48:25.439Z,19.5
2023-02-20T01:18:25.707Z,19.4
2023-02-20T01:48:25.688Z,19.3
2023-02-20T02:18:25.683Z,19.3
2023-02-20T02:48:25.686Z,19.2
2023-02-20T03:18:25.452Z,19.2
2023-02-20T03:48:25.690Z,19.1
2023-02-20T04:18:25.711Z,19.1
2023-02-20T04:48:25.687Z,19.3
2023-02-20T05:18:25.724Z,19.5
2023-02-20T05:48:25.394Z,19.5
2023-02-20T06:18:25.689Z,19.8
2023-02-20T06:48:25.712Z,19.8
2023-02-20T07:18:25.725Z,19.9
2023-02-20T07:48:25.712Z,20.0
2023-02-20T08:18:25.721Z,20.1
2023-02-20T08:48:25.675Z,20.1
2023-02-20T09:18:25.688Z,20.1
2023-02-20T09:48:25.704Z,20.2
2023-02-20T10:18:25.674Z,20.2
2023-02-20T10:48:25.695Z,20.1
2023-02-20T11:18:25.727Z,20.1
2023-02-20T11:48:25.735Z,20.1
2023-02-20T12:18:25.699Z,20.1
2023-02-20T12:48:25.681Z,20.1
2023-02-20T13:18:25.679Z,20.1
2023-02-20T13:48:25.677Z,20.2
2023-02-20T14:18:25.701Z,20.2
2023-02-20T14:48:25.639Z,20.3
2023-02-20T15:18:25.664Z,20.2
2023-02-20T15:48:25.646Z,20.2
2023-02-20T16:18:25.674Z,20.2
2023-02-20T16:48:25.685Z,20.1
2023-02-20T17:18:25.669Z,20.0
2023-02-20T17:48:25.666Z,19.9
2023-02-20T18:18:25.654Z,20.1
2023-02-20T18:48:25.399Z,20.1
2023-02-20T19:18:25.685Z,20.5
2023-02-20T19:48:25.360Z,20.5
2023-02-20T20:18:25.622Z,20.5
2023-02-20T20:48:25.638Z,20.4
2023-02-20T21:18:25.660Z,20.3
2023-02-20T21:48:25.636Z,20.1
2023-02-20T22:18:25.645Z,20.0
2023-02-20T22:48:25.650Z,19.9
2023-02-20T23:18:25.616Z,19.8
2023-02-20T23:48:25.649Z,19.7
